• Join FlightAware (Why Join?)
  • Login
  • US Flag 
05:21PM EST


 

Airport Tracker/Info


-or-


 

Live Flight TrackerFlight Track Log ✈ AAL1624 ✈ 05-May-2013 ✈ KLAX - KORD

Flight Track Log - Related Links

Times and Time Zones

All times are in EDT time to prevent confusion due to time zone crossing. See the AAL1624 flight status page for this flight to view local times or setup timezone preferences in your user account.

Time Position Orientation Groundspeed Altitude Reporting Facility
EDT Latitude Longitude Course Direction KTS MPH feet Rate Location/Type
06:36PM 33.9239 -118.3108 107° East 230 265 3,300  Level Los Angeles Center
06:37PM 33.8828 -118.2400 125° Southeast 247 284 6,500 3,000 Climbing Los Angeles Center
06:38PM 33.7667 -117.8712 90° East  Level FlightAware Approximate
06:38PM 33.8408 -118.1597 122° Southeast 274 315 9,500  Level Los Angeles Center
06:39PM 33.7449 -117.7269 96° East  Level FlightAware Approximate
06:39PM 33.7947 -118.0742 123° Southeast 297 342 11,800  Level Los Angeles Center
06:40PM 33.7333 -117.5792 90° East  Level FlightAware Approximate
06:40PM 33.7769 -117.9586 100° East 353 406 14,200  Level Los Angeles Center
06:41PM 33.7318 -117.4274 107° East  Level FlightAware Approximate
06:41PM 33.7667 -117.8333 96° East 375 432 16,300  Level Los Angeles Center
06:42PM 33.7542 -117.6981 96° East 402 463 18,800 2,400 Climbing Los Angeles Center
06:43PM 33.7433 -117.5328 94° East 415 478 21,300 2,040 Climbing Los Angeles Center
06:44PM 33.7317 -117.3906 96° East 427 491 23,000 1,080 Climbing Los Angeles Center
06:45PM 33.7194 -117.2456 96° East 437 503 23,600 1,260 Climbing Los Angeles Center
06:47PM 33.6937 -116.9992 98° East  Level FlightAware Approximate
06:47PM 33.6956 -116.9525 98° East 442 509 27,100  Level Los Angeles Center
06:49PM 33.5676 -116.7967 71° East  Level FlightAware Approximate
06:49PM 33.7067 -116.6314 71° East 477 549 29,300  Level Los Angeles Center
06:50PM 33.7472 -116.4742 73° East 488 562 30,400 1,200 Climbing Los Angeles Center
06:51PM 33.7864 -116.3169 73° East 490 564 31,800 1,500 Climbing Los Angeles Center
06:52PM 33.8342 -116.1261 73° East 495 570 33,500 1,260 Climbing Los Angeles Center
06:53PM 33.8739 -115.9725 73° East 485 558 34,500 720 Climbing Los Angeles Center
06:54PM 33.9136 -115.8119 73° East 498 573 35,000 660 Climbing Los Angeles Center
06:55PM 33.9547 -115.6517 73° East 502 578 35,900 900 Climbing Los Angeles Center
06:56PM 33.9944 -115.4906 73° East 502 578 36,900 480 Climbing Los Angeles Center
06:57PM 34.0339 -115.3317 73° East 497 572 36,900  Level Los Angeles Center
06:58PM 34.0794 -115.1431 74° East 491 565 37,000  Climbing Los Angeles Center
06:59PM 34.1192 -114.9844 73° East 493 567 37,000  Level Los Angeles Center
07:00PM 34.1589 -114.8247 73° East 496 571 37,000  Level Los Angeles Center
07:01PM 34.1972 -114.6656 74° East 496 571 37,000  Level Los Angeles Center
07:02PM 34.2369 -114.5028 74° East 510 587 37,000 -60 Level Los Angeles Center
07:03PM 34.2756 -114.3428 74° East 500 575 36,900 -60 Descending Los Angeles Center
07:05PM 34.3206 -114.1503 74° East 499 574 36,900  Level Los Angeles Center
07:06PM 34.3600 -113.9847 74° East 499 574 37,000  Climbing Albuquerque Center
07:07PM 34.3972 -113.8278 74° East 492 566 37,000  Level Albuquerque Center
07:08PM 34.4336 -113.6711 74° East 486 559 37,000  Level Albuquerque Center
07:09PM 34.4664 -113.5272 75° East 490 564 37,000  Level Albuquerque Center
07:10PM 34.5103 -113.3381 74° East 491 565 37,000  Level Albuquerque Center
07:11PM 34.5464 -113.1781 75° East 493 567 37,000  Level Albuquerque Center
07:12PM 34.5811 -113.0208 75° East 489 563 37,000  Level Albuquerque Center
07:13PM 34.6167 -112.8642 75° East 488 562 37,000  Level Albuquerque Center
07:14PM 34.6519 -112.7047 75° East 492 566 37,000  Level Albuquerque Center
07:15PM 34.6878 -112.5450 75° East 493 567 37,000  Level Albuquerque Center
07:16PM 34.7636 -112.3681 62° Northeast 504 580 37,000  Level Albuquerque Center
07:17PM 34.8414 -112.2300 56° Northeast 501 577 37,000  Level Albuquerque Center
07:18PM 34.9181 -112.0900 56° Northeast 501 577 37,000  Level Albuquerque Center
07:19PM 34.9956 -111.9506 56° Northeast 502 578 37,000  Level Albuquerque Center
07:20PM 35.0714 -111.8089 57° Northeast 503 579 37,000  Level Albuquerque Center
07:21PM 35.1253 -111.6583 66° East 498 573 37,000  Level Albuquerque Center
07:22PM 35.1914 -111.4750 66° East 494 568 37,000  Level Albuquerque Center
07:23PM 35.2475 -111.3203 66° East 495 570 37,000  Level Albuquerque Center
07:24PM 35.3028 -111.1672 66° East 493 567 37,000  Level Albuquerque Center
07:25PM 35.3631 -110.9981 66° East 494 568 37,000  Level Albuquerque Center
07:26PM 35.4169 -110.8492 66° East 497 572 37,000  Level Albuquerque Center
07:27PM 35.4697 -110.7008 66° East 497 572 37,000  Level Albuquerque Center
07:28PM 35.5317 -110.5256 66° East 500 575 37,000  Level Albuquerque Center
07:29PM 35.5839 -110.3772 67° East 497 572 37,000  Level Albuquerque Center
07:30PM 35.6447 -110.2033 67° East 496 571 37,000  Level Albuquerque Center
07:31PM 35.6975 -110.0539 66° East 497 572 37,000  Level Albuquerque Center
07:32PM 35.7481 -109.9039 67° East 497 572 37,000  Level Albuquerque Center
07:33PM 35.8094 -109.7294 66° East 497 572 37,000  Level Albuquerque Center
07:34PM 35.8597 -109.5800 67° East 494 568 37,000  Level Albuquerque Center
07:35PM 35.9197 -109.4047 67° East 496 571 37,000  Level Albuquerque Center
07:36PM 35.9700 -109.2558 67° East 493 567 37,000  Level Albuquerque Center
07:37PM 36.0247 -109.0933 67° East 492 566 37,000  Level Albuquerque Center
07:38PM 36.0781 -108.9367 67° East 494 568 37,000  Level Albuquerque Center
07:40PM 36.1422 -108.7444 67° East 497 572 37,000  Level Denver Center
07:41PM 36.1917 -108.5933 68° East 497 572 37,000  Level Denver Center
07:42PM 36.2486 -108.4183 68° East 492 566 37,000  Level Denver Center
07:43PM 36.2989 -108.2669 68° East 494 568 37,000  Level Denver Center
07:44PM 36.3556 -108.0906 68° East 494 568 37,000  Level Denver Center
07:45PM 36.4047 -107.9386 68° East 495 570 37,000  Level Denver Center
07:46PM 36.4608 -107.7631 68° East 491 565 37,000  Level Denver Center
07:47PM 36.5092 -107.6142 68° East 488 562 37,000  Level Denver Center
07:48PM 36.5644 -107.4400 68° East 485 558 37,000  Level Denver Center
07:49PM 36.6114 -107.2928 68° East 481 554 37,000  Level Denver Center
07:50PM 36.6653 -107.1189 69° East 481 554 37,000  Level Denver Center
07:51PM 36.7117 -106.9700 69° East 481 554 37,000  Level Denver Center
07:52PM 36.7589 -106.8217 68° East 482 555 37,000  Level Denver Center
07:53PM 36.8150 -106.6458 68° East 487 560 37,000  Level Denver Center
07:54PM 36.8619 -106.4944 69° East 488 562 37,000  Level Denver Center
07:55PM 36.9161 -106.3189 69° East 487 560 37,000  Level Denver Center
07:56PM 36.9631 -106.1625 69° East 486 559 37,000  Level Denver Center
07:57PM 37.0153 -105.9861 70° East 485 558 37,000  Level Denver Center
07:58PM 37.0625 -105.8344 69° East 488 562 37,000  Level Denver Center
07:59PM 37.1156 -105.6575 69° East 487 560 37,000  Level Denver Center
08:00PM 37.1597 -105.5028 70° East 491 565 37,000  Level Denver Center
08:01PM 37.2050 -105.3497 70° East 489 563 37,000  Level Denver Center
08:02PM 37.2583 -105.1697 70° East 491 565 37,000  Level Denver Center
08:03PM 37.3031 -105.0181 70° East 487 560 37,000  Level Denver Center
08:04PM 37.3539 -104.8406 70° East 484 557 37,000  Level Denver Center
08:05PM 37.3981 -104.6886 70° East 484 557 37,000  Level Denver Center
08:06PM 37.4483 -104.5108 70° East 484 557 37,000  Level Denver Center
08:07PM 37.4914 -104.3592 70° East 481 554 37,000  Level Denver Center
08:08PM 37.5419 -104.1806 70° East 483 556 37,000  Level Denver Center
08:10PM 37.5869 -104.0211 70° East 485 558 37,000  Level Denver Center
08:11PM 37.6322 -103.8642 70° East 484 557 37,000  Level Denver Center
08:13PM 37.7250 -103.5308 71° East 483 556 37,000  Level Denver Center
08:14PM 37.7669 -103.3772 71° East 483 556 37,000  Level Denver Center
08:15PM 37.8150 -103.1967 71° East 485 558 37,000  Level Denver Center
08:16PM 37.8572 -103.0417 71° East 486 559 37,000  Level Denver Center
08:17PM 37.9128 -102.8342 71° East 487 560 37,000  Level Denver Center
08:18PM 37.9556 -102.6786 71° East 488 562 37,000  Level Denver Center
08:19PM 38.0039 -102.4975 71° East 485 558 37,000  Level Denver Center
08:20PM 38.0364 -102.3731 72° East 485 558 37,000  Level Denver Center
08:21PM 38.0903 -102.1667 72° East 484 557 37,000  Level Denver Center
08:22PM 38.1314 -102.0114 71° East 484 557 37,000  Level Denver Center
08:23PM 38.1783 -101.8272 72° East 489 563 37,000  Level Denver Center
08:24PM 38.2186 -101.6708 72° East 486 559 37,000  Level Denver Center
08:25PM 38.2656 -101.4867 72° East 488 562 37,000  Level Denver Center
08:26PM 38.3061 -101.3283 72° East 490 564 37,000  Level Denver Center
08:27PM 38.3450 -101.1703 73° East 488 562 37,000  Level Denver Center
08:28PM 38.3914 -100.9867 72° East 486 559 37,000  Level Denver Center
08:29PM 38.4300 -100.8308 72° East 482 555 37,000  Level Denver Center
08:30PM 38.4733 -100.6517 73° East 473 544 37,000  Level Denver Center
08:31PM 38.5117 -100.4978 72° East 474 545 37,000  Level Denver Center
08:32PM 38.5556 -100.3178 73° East 474 545 37,000  Level Denver Center
08:33PM 38.5925 -100.1661 73° East 469 540 37,000  Level Denver Center
08:34PM 38.6292 -100.0131 73° East 469 540 37,000  Level Denver Center
08:36PM 38.6778 -99.8083 73° East 471 542 37,000  Level Denver Center
08:37PM 38.7200 -99.6292 73° East 470 541 37,000  Level Denver Center
08:38PM 38.7564 -99.4769 73° East 470 541 37,000  Level Denver Center
08:39PM 38.7933 -99.3194 73° East 467 537 37,000  Level Kansas City Center
08:40PM 38.8328 -99.1572 73° East 474 545 37,000  Level Kansas City Center
08:41PM 38.8686 -98.9989 74° East 463 533 37,000  Level Kansas City Center
08:42PM 38.9050 -98.8389 74° East 464 534 37,000  Level Kansas City Center
08:43PM 38.9406 -98.6783 74° East 465 535 37,000  Level Kansas City Center
08:44PM 38.9772 -98.5178 74° East 466 536 37,000  Level Kansas City Center
08:45PM 39.0131 -98.3567 74° East 466 536 37,000  Level Kansas City Center
08:46PM 39.0494 -98.1956 74° East 467 537 37,000  Level Kansas City Center
08:47PM 39.0919 -98.0025 74° East 466 536 37,000  Level Kansas City Center
08:48PM 39.1272 -97.8383 74° East 465 535 37,000 120 Level Kansas City Center
08:49PM 39.1594 -97.6867 75° East 460 529 37,300 600 Climbing Kansas City Center
08:50PM 39.1925 -97.5367 74° East 455 524 38,300 780 Climbing Kansas City Center
08:51PM 39.2297 -97.3617 75° East 453 521 39,000 300 Climbing Kansas City Center
08:52PM 39.2631 -97.2122 74° East 453 521 39,000  Level Kansas City Center
08:53PM 39.3008 -97.0358 74° East 455 524 39,000  Level Kansas City Center
08:54PM 39.3333 -96.8819 75° East 461 531 39,000  Level Kansas City Center
08:55PM 39.3656 -96.7264 75° East 467 537 39,000  Level Kansas City Center
08:56PM 39.4017 -96.5472 75° East 464 534 39,000  Level Kansas City Center
08:57PM 39.4364 -96.3806 75° East 458 527 39,000  Level Kansas City Center
08:58PM 39.4672 -96.2214 76° East 457 526 39,000  Level Kansas City Center
08:59PM 39.4969 -96.0642 76° East 456 525 39,000  Level Kansas City Center
09:00PM 39.5278 -95.9131 75° East 454 522 39,000  Level Kansas City Center
09:01PM 39.5628 -95.7331 76° East 460 529 39,000  Level Kansas City Center
09:02PM 39.5931 -95.5794 76° East 457 526 39,000  Level Kansas City Center
09:03PM 39.6281 -95.4003 76° East 455 524 39,000  Level Kansas City Center
09:04PM 39.6572 -95.2467 76° East 455 524 39,000  Level Kansas City Center
09:05PM 39.6867 -95.0939 76° East 453 521 39,000  Level Kansas City Center
09:06PM 39.7211 -94.9158 76° East 454 522 39,000  Level Kansas City Center
09:07PM 39.7489 -94.7647 77° East 449 517 39,000  Level Kansas City Center
09:08PM 39.7772 -94.6133 76° East 449 517 39,000  Level Kansas City Center
09:09PM 39.8100 -94.4372 76° East 448 516 39,000  Level Kansas City Center
09:10PM 39.8375 -94.2867 77° East 447 514 39,000  Level Kansas City Center
09:12PM 39.8694 -94.1125 77° East 444 511 39,000  Level Kansas City Center
09:13PM 39.8947 -93.9614 78° East 452 520 39,000  Level Kansas City Center
09:14PM 39.9214 -93.8053 77° East 448 516 39,000  Level Kansas City Center
09:15PM 39.9514 -93.6506 76° East 445 512 39,000  Level Kansas City Center
09:16PM 39.9800 -93.4972 76° East 442 509 39,000  Level Kansas City Center
09:17PM 40.0103 -93.3089 78° East 446 513 39,000  Level Kansas City Center
09:18PM 40.0383 -93.1544 77° East 442 509 39,000  Level Kansas City Center
09:19PM 40.0642 -93.0033 77° East 435 501 39,000  Level Kansas City Center
09:20PM 40.0928 -92.8419 77° East 432 497 39,000  Level Kansas City Center
09:21PM 40.1167 -92.6950 78° East 432 497 39,000  Level Kansas City Center
09:22PM 40.1536 -92.5275 74° East 429 494 39,000  Level Kansas City Center
09:23PM 40.2089 -92.3956 61° Northeast 432 497 39,000  Level Kansas City Center
09:24PM 40.2581 -92.2519 66° East 431 496 39,000  Level Kansas City Center
09:25PM 40.3083 -92.1114 65° Northeast 433 498 39,000  Level Kansas City Center
09:26PM 40.3586 -91.9681 65° Northeast 436 502 39,000 -900 Level Kansas City Center
09:27PM 40.4086 -91.8269 65° Northeast 435 501 37,200 -2,520 Descending Kansas City Center
09:28PM 40.4672 -91.6572 66° East 430 495 33,900 -2,880 Descending Kansas City Center
09:28PM 40.4867 -91.6000 66° East 430 495 32,700 -2,760 Descending Chicago Center
09:29PM 40.5450 -91.4314 65° Northeast 426 490 29,600 -1,860 Descending Chicago Center
09:31PM 40.5889 -91.2972 67° East 433 498 29,000 -300 Descending Chicago Center
09:32PM 40.6392 -91.1544 65° Northeast 432 497 29,000  Level Chicago Center
09:33PM 40.6889 -91.0086 66° East 434 499 29,000  Level Chicago Center
09:34PM 40.7386 -90.8625 66° East 435 501 29,000  Level Chicago Center
09:35PM 40.7975 -90.6861 66° East 438 504 29,000  Level Chicago Center
09:36PM 40.8464 -90.5408 66° East 434 499 29,000  Level Chicago Center
09:37PM 40.8967 -90.3931 66° East 438 504 29,000  Level Chicago Center
09:38PM 40.9461 -90.2458 66° East 438 504 29,000  Level Chicago Center
09:39PM 40.9942 -90.0983 67° East 438 504 29,000  Level Chicago Center
09:40PM 41.0442 -89.9447 67° East 440 506 29,000 -780 Level Chicago Center
09:41PM 41.0919 -89.7994 66° East 426 490 27,500 -1,860 Descending Chicago Center
09:42PM 41.1367 -89.6608 67° East 408 470 25,200 -2,160 Descending Chicago Center
09:43PM 41.1836 -89.5300 64° Northeast 393 452 23,100 -1,920 Descending Chicago Center
09:44PM 41.2344 -89.4067 61° Northeast 381 438 21,300 -1,800 Descending Chicago Center
09:45PM 41.2831 -89.2850 62° Northeast 374 430 19,500 -1,860 Descending Chicago Center
09:46PM 41.3344 -89.1536 62° Northeast 362 417 17,600 -1,860 Descending Chicago Center
09:47PM 41.3814 -89.0372 62° Northeast 359 413 15,800 -1,740 Descending Chicago Center
09:48PM 41.4261 -88.9253 62° Northeast 348 400 14,100 -1,620 Descending Chicago Center
09:49PM 41.4689 -88.8156 62° Northeast 337 388 12,500 -1,560 Descending Chicago Center
09:50PM 41.5192 -88.6889 62° Northeast 322 371 11,000 -780 Descending Chicago Center
09:51PM 41.5558 -88.5961 62° Northeast 288 331 11,000  Level Chicago Center
09:52PM 41.5789 -88.5025 72° East 274 315 11,000 -600 Level Chicago Center
09:53PM 41.6128 -88.4169 62° Northeast 273 314 9,800 -1,380 Descending Chicago Center
09:54PM 41.6294 -88.3192 77° East 271 312 8,200 -900 Descending Chicago Center
09:55PM 41.6669 -88.2367 59° Northeast 275 316 8,000 -840 Descending Chicago Center
09:56PM 41.7239 -88.1672 42° Northeast 278 320 6,600 -1,260 Descending Chicago Center
09:57PM 41.7822 -88.1014 40° Northeast 276 318 5,500 -1,320 Descending Chicago Center
09:58PM 41.8356 -88.0389 41° Northeast 266 306 3,900 -1,560 Descending Chicago Center
09:59PM 41.8833 -87.9833 41° Northeast 201 231 2,700 -1,200 Descending Chicago TRACON
10:00PM 41.9167 -87.9500 37° Northeast 158 182 1,800 -900 Descending Chicago TRACON
10:01PM 41.9333 -87.9167 56° Northeast 133 153 1,000 -840 Descending Chicago TRACON